Bloomingdale, Michigan
Current Conditions -  °F | °C
As of 8:54 AM on Saturday 25 Oct 2014 (Local Time) from KLWA Reporting Station
Haze Haze  
Wind Chill: 57°   Ceiling: 300
Heat Index: 57°   Visibility: 2mi
Dew Point: 55°   Wind: 6mph
Humidity: 95%   Direction: 250°WSW
Pressure: 29.88"   Gusts: NA
Location:  42.38°N, 85.96°W
Report Text: KLWA 251254Z AUTO 25005KT 2SM BR OVC003 14/13 A2988 RMK AO2 T01380130
Loading
Personal Weather Stations






























Interactive Weather Map
Tropical Storm Tracking
New forecast layout! Learn more

10-Day Weather Forecast

Advertisements
Track Severe Weather on mobile